CheckWX is a tool to help pilots better visualize weather data.  It is not intended as a substitute for an official pre-flight weather briefing.

13:08:55 UTC

KAAT METAR
Alturas Municipal Airport
Alturas, California, USA
Current

1 hour ago

KAAT 181155Z AUTO 00000KT 10SM OVC048 M11/M13 A3011 RMK AO2 SLP231 70010 T11111128 11094 21167 58001
Observed
Feb-18 @ 11:55 UTC
Visibility
10 SM
Flight Rules
VFR
Cloud Levels
  • Overcast at 4,800' AGL
Temperature
-11°C / 12°F
Dewpoint
-13°C / 9°F
Humidity
85%
Altimeter
30.11" Hg
Pressure
1023.1 hPa
Previous

2 hours ago

KAAT 181055Z AUTO 00000KT 9SM OVC050 M12/M13 A3011 RMK AO2 SLP236 T11221133
Observed
Feb-18 @ 10:55 UTC
Visibility
9 SM
Flight Rules
VFR
Cloud Levels
  • Overcast at 5,000' AGL
Temperature
-12°C / 10°F
Dewpoint
-13°C / 9°F
Humidity
92%
Altimeter
30.11" Hg
Pressure
1023.6 hPa
Previous

3 hours ago

KAAT 180955Z AUTO 07003KT 4SM BR FEW001 SCT041 OVC050 M13/M15 A3012 RMK AO2 SLP238 T11281150
Observed
Feb-18 @ 09:55 UTC
Wind
  • 070° at 3 KTS
Visibility
4 SM
Flight Rules
MVFR
Conditions
Mist
Cloud Levels
  • Few at 100' AGL
  • Scattered at 4,100' AGL
  • Overcast at 5,000' AGL
Temperature
-13°C / 9°F
Dewpoint
-15°C / 5°F
Humidity
85%
Altimeter
30.12" Hg
Pressure
1023.8 hPa